sensor_id;sensor_type;location;lat;lon;timestamp;pressure;altitude;pressure_sealevel;temperature;humidity
22651;BME280;11492;42.646;23.400;2023-02-10T00:03:39;96865.88;;;-3.69;55.97
22651;BME280;11492;42.646;23.400;2023-02-10T00:06:06;96864.84;;;-3.64;55.82
22651;BME280;11492;42.646;23.400;2023-02-10T00:08:32;96876.72;;;-3.66;55.64
22651;BME280;11492;42.646;23.400;2023-02-10T00:11:02;96871.88;;;-3.73;56.29
22651;BME280;11492;42.646;23.400;2023-02-10T00:13:28;96877.72;;;-3.71;56.10
22651;BME280;11492;42.646;23.400;2023-02-10T00:15:56;96865.41;;;-3.80;56.09
22651;BME280;11492;42.646;23.400;2023-02-10T00:18:22;96866.28;;;-3.81;56.12
22651;BME280;11492;42.646;23.400;2023-02-10T00:20:47;96848.88;;;-3.88;56.87
22651;BME280;11492;42.646;23.400;2023-02-10T00:23:13;96851.44;;;-3.90;56.36
22651;BME280;11492;42.646;23.400;2023-02-10T00:25:38;96867.53;;;-3.94;56.80
22651;BME280;11492;42.646;23.400;2023-02-10T00:28:04;96865.22;;;-3.99;56.86
22651;BME280;11492;42.646;23.400;2023-02-10T00:30:31;96867.16;;;-4.07;57.21
22651;BME280;11492;42.646;23.400;2023-02-10T00:32:56;96848.03;;;-4.13;56.60
22651;BME280;11492;42.646;23.400;2023-02-10T00:35:22;96852.47;;;-4.21;56.61
22651;BME280;11492;42.646;23.400;2023-02-10T00:37:47;96864.25;;;-4.21;56.86
22651;BME280;11492;42.646;23.400;2023-02-10T00:40:13;96854.63;;;-4.36;57.12
22651;BME280;11492;42.646;23.400;2023-02-10T00:42:38;96857.28;;;-4.40;57.28
22651;BME280;11492;42.646;23.400;2023-02-10T00:45:04;96853.50;;;-4.53;57.77
22651;BME280;11492;42.646;23.400;2023-02-10T00:47:29;96835.41;;;-4.65;57.76
22651;BME280;11492;42.646;23.400;2023-02-10T00:49:55;96847.03;;;-4.61;58.02
22651;BME280;11492;42.646;23.400;2023-02-10T00:52:22;96843.81;;;-4.66;57.87
22651;BME280;11492;42.646;23.400;2023-02-10T00:54:47;96841.53;;;-4.73;58.03
22651;BME280;11492;42.646;23.400;2023-02-10T00:57:13;96824.22;;;-4.84;58.08
22651;BME280;11492;42.646;23.400;2023-02-10T00:59:38;96839.31;;;-4.84;58.14
22651;BME280;11492;42.646;23.400;2023-02-10T01:02:03;96839.41;;;-4.87;57.95
22651;BME280;11492;42.646;23.400;2023-02-10T01:04:29;96838.41;;;-4.81;58.48
22651;BME280;11492;42.646;23.400;2023-02-10T01:06:54;96829.31;;;-4.85;58.03
22651;BME280;11492;42.646;23.400;2023-02-10T01:09:20;96835.69;;;-4.74;58.04
22651;BME280;11492;42.646;23.400;2023-02-10T01:11:45;96827.25;;;-4.73;57.76
22651;BME280;11492;42.646;23.400;2023-02-10T01:14:10;96833.75;;;-4.66;57.79
22651;BME280;11492;42.646;23.400;2023-02-10T01:16:36;96834.81;;;-4.73;57.34
22651;BME280;11492;42.646;23.400;2023-02-10T01:19:02;96829.59;;;-4.67;57.79
22651;BME280;11492;42.646;23.400;2023-02-10T01:21:28;96834.53;;;-4.64;57.44
22651;BME280;11492;42.646;23.400;2023-02-10T01:23:55;96821.13;;;-4.65;57.24
22651;BME280;11492;42.646;23.400;2023-02-10T01:26:20;96819.31;;;-4.61;57.36
22651;BME280;11492;42.646;23.400;2023-02-10T01:28:46;96809.44;;;-4.67;56.70
22651;BME280;11492;42.646;23.400;2023-02-10T01:31:15;96813.03;;;-4.74;57.38
22651;BME280;11492;42.646;23.400;2023-02-10T01:33:41;96805.66;;;-4.80;57.35
22651;BME280;11492;42.646;23.400;2023-02-10T01:36:11;96814.16;;;-4.84;57.32
22651;BME280;11492;42.646;23.400;2023-02-10T01:38:37;96815.75;;;-4.81;57.77
22651;BME280;11492;42.646;23.400;2023-02-10T01:41:04;96808.44;;;-4.89;58.07
22651;BME280;11492;42.646;23.400;2023-02-10T01:43:30;96815.22;;;-4.92;57.72
22651;BME280;11492;42.646;23.400;2023-02-10T01:45:55;96809.47;;;-4.96;57.69
22651;BME280;11492;42.646;23.400;2023-02-10T01:48:21;96812.13;;;-5.00;57.57
22651;BME280;11492;42.646;23.400;2023-02-10T01:50:51;96807.72;;;-4.94;57.69
22651;BME280;11492;42.646;23.400;2023-02-10T01:53:19;96807.72;;;-4.94;57.81
22651;BME280;11492;42.646;23.400;2023-02-10T01:55:49;96807.72;;;-4.94;57.98
22651;BME280;11492;42.646;23.400;2023-02-10T01:58:18;96797.66;;;-4.94;58.35
22651;BME280;11492;42.646;23.400;2023-02-10T02:00:44;96801.75;;;-4.90;58.30
22651;BME280;11492;42.646;23.400;2023-02-10T02:03:10;96791.00;;;-4.95;58.15
22651;BME280;11492;42.646;23.400;2023-02-10T02:05:41;96781.00;;;-4.97;57.58
22651;BME280;11492;42.646;23.400;2023-02-10T02:08:13;96777.28;;;-4.85;57.26
22651;BME280;11492;42.646;23.400;2023-02-10T02:27:11;96763.56;;;-4.76;57.06
22651;BME280;11492;42.646;23.400;2023-02-10T02:30:11;96766.28;;;-4.82;57.59
22651;BME280;11492;42.646;23.400;2023-02-10T02:32:57;96767.03;;;-4.79;57.94
22651;BME280;11492;42.646;23.400;2023-02-10T02:35:31;96747.34;;;-4.94;58.61
22651;BME280;11492;42.646;23.400;2023-02-10T02:37:59;96764.09;;;-4.93;58.70
22651;BME280;11492;42.646;23.400;2023-02-10T02:40:24;96764.22;;;-4.97;59.08
22651;BME280;11492;42.646;23.400;2023-02-10T02:42:50;96751.09;;;-5.06;59.25
22651;BME280;11492;42.646;23.400;2023-02-10T02:45:21;96764.63;;;-5.10;59.04
22651;BME280;11492;42.646;23.400;2023-02-10T02:48:09;96760.53;;;-5.14;59.98
22651;BME280;11492;42.646;23.400;2023-02-10T02:53:28;96759.84;;;-5.19;60.02
22651;BME280;11492;42.646;23.400;2023-02-10T02:56:06;96762.44;;;-5.21;59.97
22651;BME280;11492;42.646;23.400;2023-02-10T03:01:22;96765.94;;;-5.26;60.47
22651;BME280;11492;42.646;23.400;2023-02-10T03:03:52;96762.16;;;-5.40;61.06
22651;BME280;11492;42.646;23.400;2023-02-10T03:06:19;96757.44;;;-5.50;61.14
22651;BME280;11492;42.646;23.400;2023-02-10T03:08:44;96761.06;;;-5.60;61.65
22651;BME280;11492;42.646;23.400;2023-02-10T03:11:10;96763.44;;;-5.56;61.52
22651;BME280;11492;42.646;23.400;2023-02-10T03:13:35;96755.56;;;-5.44;61.38
22651;BME280;11492;42.646;23.400;2023-02-10T03:16:01;96757.94;;;-5.40;61.06
22651;BME280;11492;42.646;23.400;2023-02-10T03:18:27;96756.31;;;-5.41;60.79
22651;BME280;11492;42.646;23.400;2023-02-10T03:20:53;96755.38;;;-5.37;61.88
22651;BME280;11492;42.646;23.400;2023-02-10T03:23:18;96751.28;;;-5.41;61.64
22651;BME280;11492;42.646;23.400;2023-02-10T03:25:45;96769.63;;;-5.37;61.40
22651;BME280;11492;42.646;23.400;2023-02-10T03:28:10;96754.72;;;-5.43;62.00
22651;BME280;11492;42.646;23.400;2023-02-10T03:30:37;96767.97;;;-5.38;61.81
22651;BME280;11492;42.646;23.400;2023-02-10T03:33:03;96769.63;;;-5.37;62.11
22651;BME280;11492;42.646;23.400;2023-02-10T03:35:29;96768.25;;;-5.47;62.22
22651;BME280;11492;42.646;23.400;2023-02-10T03:37:54;96764.09;;;-5.49;62.13
22651;BME280;11492;42.646;23.400;2023-02-10T03:40:20;96758.25;;;-5.50;62.21
22651;BME280;11492;42.646;23.400;2023-02-10T03:42:45;96751.75;;;-5.57;61.60
22651;BME280;11492;42.646;23.400;2023-02-10T03:45:11;96748.41;;;-5.57;61.82
22651;BME280;11492;42.646;23.400;2023-02-10T03:47:36;96747.53;;;-5.56;62.37
22651;BME280;11492;42.646;23.400;2023-02-10T03:50:01;96750.06;;;-5.56;62.21
22651;BME280;11492;42.646;23.400;2023-02-10T03:52:27;96750.97;;;-5.59;61.88
22651;BME280;11492;42.646;23.400;2023-02-10T03:54:52;96731.72;;;-5.60;61.90
22651;BME280;11492;42.646;23.400;2023-02-10T03:57:18;96727.44;;;-5.56;62.18
22651;BME280;11492;42.646;23.400;2023-02-10T03:59:44;96749.13;;;-5.52;61.69
22651;BME280;11492;42.646;23.400;2023-02-10T04:02:09;96738.31;;;-5.56;61.74
22651;BME280;11492;42.646;23.400;2023-02-10T04:04:35;96742.75;;;-5.65;61.86
22651;BME280;11492;42.646;23.400;2023-02-10T04:07:02;96740.34;;;-5.68;61.82
22651;BME280;11492;42.646;23.400;2023-02-10T04:09:28;96748.94;;;-5.75;61.42
22651;BME280;11492;42.646;23.400;2023-02-10T04:11:53;96748.31;;;-5.83;61.39
22651;BME280;11492;42.646;23.400;2023-02-10T04:14:19;96742.81;;;-5.95;62.32
22651;BME280;11492;42.646;23.400;2023-02-10T04:16:44;96739.44;;;-5.96;62.02
22651;BME280;11492;42.646;23.400;2023-02-10T04:19:10;96744.56;;;-5.98;61.91
22651;BME280;11492;42.646;23.400;2023-02-10T04:21:35;96743.69;;;-5.97;61.59
22651;BME280;11492;42.646;23.400;2023-02-10T04:24:00;96745.50;;;-6.02;61.53
22651;BME280;11492;42.646;23.400;2023-02-10T04:26:26;96738.06;;;-6.05;61.80
22651;BME280;11492;42.646;23.400;2023-02-10T04:28:51;96747.47;;;-6.13;61.66
22651;BME280;11492;42.646;23.400;2023-02-10T04:31:17;96742.50;;;-6.16;61.72
22651;BME280;11492;42.646;23.400;2023-02-10T04:33:43;96745.13;;;-6.19;61.86
22651;BME280;11492;42.646;23.400;2023-02-10T04:36:08;96747.84;;;-6.28;62.13
22651;BME280;11492;42.646;23.400;2023-02-10T04:38:34;96747.91;;;-6.29;62.18
22651;BME280;11492;42.646;23.400;2023-02-10T04:41:00;96740.59;;;-6.38;62.28
22651;BME280;11492;42.646;23.400;2023-02-10T04:43:28;96743.06;;;-6.37;62.86
22651;BME280;11492;42.646;23.400;2023-02-10T04:45:53;96742.16;;;-6.34;63.61
22651;BME280;11492;42.646;23.400;2023-02-10T04:48:19;96762.47;;;-6.42;63.59
22651;BME280;11492;42.646;23.400;2023-02-10T04:50:46;96760.47;;;-6.29;63.57
22651;BME280;11492;42.646;23.400;2023-02-10T04:53:12;96756.25;;;-6.29;63.47
22651;BME280;11492;42.646;23.400;2023-02-10T04:55:37;96758.88;;;-6.33;63.60
22651;BME280;11492;42.646;23.400;2023-02-10T04:58:03;96753.75;;;-6.29;63.87
22651;BME280;11492;42.646;23.400;2023-02-10T05:00:28;96754.00;;;-6.39;64.15
22651;BME280;11492;42.646;23.400;2023-02-10T05:02:54;96760.75;;;-6.41;63.66
22651;BME280;11492;42.646;23.400;2023-02-10T05:05:19;96758.28;;;-6.43;64.08
22651;BME280;11492;42.646;23.400;2023-02-10T05:07:45;96762.31;;;-6.36;64.61
22651;BME280;11492;42.646;23.400;2023-02-10T05:10:10;96767.63;;;-6.49;64.09
22651;BME280;11492;42.646;23.400;2023-02-10T05:12:36;96773.47;;;-6.48;63.66
22651;BME280;11492;42.646;23.400;2023-02-10T05:15:01;96766.81;;;-6.49;64.58
22651;BME280;11492;42.646;23.400;2023-02-10T05:17:27;96777.56;;;-6.45;64.32
22651;BME280;11492;42.646;23.400;2023-02-10T05:19:52;96761.84;;;-6.52;64.23
22651;BME280;11492;42.646;23.400;2023-02-10T05:22:18;96772.75;;;-6.53;64.33
22651;BME280;11492;42.646;23.400;2023-02-10T05:24:43;96780.19;;;-6.49;64.16
22651;BME280;11492;42.646;23.400;2023-02-10T05:27:09;96790.06;;;-6.42;64.18
22651;BME280;11492;42.646;23.400;2023-02-10T05:29:34;96787.41;;;-6.36;65.45
22651;BME280;11492;42.646;23.400;2023-02-10T05:32:00;96791.41;;;-6.29;63.67
22651;BME280;11492;42.646;23.400;2023-02-10T05:34:25;96806.31;;;-6.23;63.22
22651;BME280;11492;42.646;23.400;2023-02-10T05:36:52;96802.22;;;-6.25;63.23
22651;BME280;11492;42.646;23.400;2023-02-10T05:39:17;96806.78;;;-6.41;63.80
22651;BME280;11492;42.646;23.400;2023-02-10T05:41:52;96810.00;;;-6.36;63.26
22651;BME280;11492;42.646;23.400;2023-02-10T05:44:18;96813.34;;;-6.35;63.13
22651;BME280;11492;42.646;23.400;2023-02-10T05:46:44;96825.06;;;-6.36;63.07
22651;BME280;11492;42.646;23.400;2023-02-10T05:49:10;96821.13;;;-6.45;62.28
22651;BME280;11492;42.646;23.400;2023-02-10T05:51:35;96806.56;;;-6.66;62.84
22651;BME280;11492;42.646;23.400;2023-02-10T05:54:01;96820.28;;;-6.46;62.46
22651;BME280;11492;42.646;23.400;2023-02-10T05:56:26;96823.44;;;-6.38;62.56
22651;BME280;11492;42.646;23.400;2023-02-10T05:58:51;96818.16;;;-6.28;65.31
22651;BME280;11492;42.646;23.400;2023-02-10T06:01:17;96794.84;;;-6.33;64.47
22651;BME280;11492;42.646;23.400;2023-02-10T06:03:42;96813.72;;;-5.86;65.67
22651;BME280;11492;42.646;23.400;2023-02-10T06:06:09;96800.72;;;-5.70;63.00
22651;BME280;11492;42.646;23.400;2023-02-10T06:08:34;96829.72;;;-5.58;60.32
22651;BME280;11492;42.646;23.400;2023-02-10T06:11:00;96831.84;;;-5.73;60.39
22651;BME280;11492;42.646;23.400;2023-02-10T06:13:25;96838.84;;;-5.84;61.15
22651;BME280;11492;42.646;23.400;2023-02-10T06:15:50;96837.22;;;-5.87;61.46
22651;BME280;11492;42.646;23.400;2023-02-10T06:18:16;96839.69;;;-5.85;61.23
22651;BME280;11492;42.646;23.400;2023-02-10T06:20:41;96839.09;;;-5.95;61.35
22651;BME280;11492;42.646;23.400;2023-02-10T06:23:09;96830.84;;;-5.99;61.50
22651;BME280;11492;42.646;23.400;2023-02-10T06:25:35;96851.53;;;-5.90;61.89
22651;BME280;11492;42.646;23.400;2023-02-10T06:28:01;96850.69;;;-5.91;61.93
22651;BME280;11492;42.646;23.400;2023-02-10T06:30:27;96860.84;;;-5.94;61.80
22651;BME280;11492;42.646;23.400;2023-02-10T06:32:52;96846.72;;;-5.97;61.90
22651;BME280;11492;42.646;23.400;2023-02-10T06:35:18;96857.63;;;-5.98;61.89
22651;BME280;11492;42.646;23.400;2023-02-10T06:37:43;96850.97;;;-6.01;62.32
22651;BME280;11492;42.646;23.400;2023-02-10T06:40:09;96856.56;;;-5.90;61.93
22651;BME280;11492;42.646;23.400;2023-02-10T06:42:35;96852.38;;;-5.90;62.15
22651;BME280;11492;42.646;23.400;2023-02-10T06:45:01;96835.13;;;-6.03;61.57
22651;BME280;11492;42.646;23.400;2023-02-10T06:47:26;96860.91;;;-5.96;62.52
22651;BME280;11492;42.646;23.400;2023-02-10T06:49:52;96863.06;;;-5.82;62.20
22651;BME280;11492;42.646;23.400;2023-02-10T06:52:17;96871.38;;;-5.80;62.36
22651;BME280;11492;42.646;23.400;2023-02-10T06:54:43;96865.25;;;-5.70;62.04
22651;BME280;11492;42.646;23.400;2023-02-10T06:57:09;96864.88;;;-5.57;62.43
22651;BME280;11492;42.646;23.400;2023-02-10T06:59:35;96867.16;;;-5.48;62.20
22651;BME280;11492;42.646;23.400;2023-02-10T07:02:00;96859.47;;;-5.44;62.22
22651;BME280;11492;42.646;23.400;2023-02-10T07:04:31;96876.78;;;-5.32;62.11
22651;BME280;11492;42.646;23.400;2023-02-10T07:06:57;96867.19;;;-5.20;61.37
22651;BME280;11492;42.646;23.400;2023-02-10T07:09:22;96860.34;;;-5.15;61.02
22651;BME280;11492;42.646;23.400;2023-02-10T07:11:48;96861.72;;;-5.03;61.02
22651;BME280;11492;42.646;23.400;2023-02-10T07:14:13;96859.13;;;-5.00;60.22
22651;BME280;11492;42.646;23.400;2023-02-10T07:16:39;96856.50;;;-4.97;60.13
22651;BME280;11492;42.646;23.400;2023-02-10T07:19:04;96857.19;;;-4.91;60.02
22651;BME280;11492;42.646;23.400;2023-02-10T07:21:30;96849.75;;;-4.96;59.90
22651;BME280;11492;42.646;23.400;2023-02-10T07:23:56;96848.88;;;-4.95;59.80
22651;BME280;11492;42.646;23.400;2023-02-10T07:26:21;96852.97;;;-4.92;59.94
22651;BME280;11492;42.646;23.400;2023-02-10T07:28:47;96851.28;;;-4.92;59.26
22651;BME280;11492;42.646;23.400;2023-02-10T07:31:12;96851.09;;;-4.84;59.08
22651;BME280;11492;42.646;23.400;2023-02-10T07:33:38;96855.25;;;-4.83;59.67
22651;BME280;11492;42.646;23.400;2023-02-10T07:36:03;96854.75;;;-4.67;59.55
22651;BME280;11492;42.646;23.400;2023-02-10T07:38:31;96844.31;;;-4.55;59.70
22651;BME280;11492;42.646;23.400;2023-02-10T07:40:57;96837.63;;;-4.56;59.23
22651;BME280;11492;42.646;23.400;2023-02-10T07:43:23;96833.75;;;-4.39;59.27
22651;BME280;11492;42.646;23.400;2023-02-10T07:45:48;96836.31;;;-4.41;59.36
22651;BME280;11492;42.646;23.400;2023-02-10T07:48:17;96842.44;;;-4.22;58.72
22651;BME280;11492;42.646;23.400;2023-02-10T07:50:44;96836.88;;;-4.06;58.68
22651;BME280;11492;42.646;23.400;2023-02-10T07:53:11;96835.09;;;-4.02;58.23
22651;BME280;11492;42.646;23.400;2023-02-10T07:55:37;96841.31;;;-3.88;58.08
22651;BME280;11492;42.646;23.400;2023-02-10T07:58:03;96845.34;;;-3.83;57.60
22651;BME280;11492;42.646;23.400;2023-02-10T08:00:29;96843.31;;;-3.72;57.32
22651;BME280;11492;42.646;23.400;2023-02-10T08:02:54;96839.50;;;-3.59;57.50
22651;BME280;11492;42.646;23.400;2023-02-10T08:05:20;96844.91;;;-3.46;57.22
22651;BME280;11492;42.646;23.400;2023-02-10T08:07:46;96833.56;;;-3.34;56.21
22651;BME280;11492;42.646;23.400;2023-02-10T08:10:12;96835.59;;;-3.21;56.37
22651;BME280;11492;42.646;23.400;2023-02-10T08:12:37;96832.16;;;-3.19;55.53
22651;BME280;11492;42.646;23.400;2023-02-10T08:15:03;96830.72;;;-3.03;55.24
22651;BME280;11492;42.646;23.400;2023-02-10T08:17:28;96831.00;;;-2.88;55.12
22651;BME280;11492;42.646;23.400;2023-02-10T08:19:54;96823.63;;;-2.71;55.53
22651;BME280;11492;42.646;23.400;2023-02-10T08:22:19;96832.19;;;-2.52;54.51
22651;BME280;11492;42.646;23.400;2023-02-10T08:24:45;96827.78;;;-2.48;54.04
22651;BME280;11492;42.646;23.400;2023-02-10T08:27:10;96834.41;;;-2.24;53.70
22651;BME280;11492;42.646;23.400;2023-02-10T08:29:35;96827.53;;;-1.99;53.37
22651;BME280;11492;42.646;23.400;2023-02-10T08:32:01;96828.31;;;-1.39;51.34
22651;BME280;11492;42.646;23.400;2023-02-10T08:34:26;96816.09;;;1.13;44.97
22651;BME280;11492;42.646;23.400;2023-02-10T08:36:52;96800.19;;;3.82;41.32
22651;BME280;11492;42.646;23.400;2023-02-10T08:39:18;96802.13;;;5.42;36.03
22651;BME280;11492;42.646;23.400;2023-02-10T08:41:44;96789.25;;;6.71;33.94
22651;BME280;11492;42.646;23.400;2023-02-10T08:44:11;96782.13;;;8.36;31.60
22651;BME280;11492;42.646;23.400;2023-02-10T08:46:37;96774.41;;;9.66;29.40
22651;BME280;11492;42.646;23.400;2023-02-10T08:49:02;96775.47;;;10.69;27.19
22651;BME280;11492;42.646;23.400;2023-02-10T08:51:29;96777.59;;;11.39;27.24
22651;BME280;11492;42.646;23.400;2023-02-10T08:53:55;96777.91;;;11.62;26.00
22651;BME280;11492;42.646;23.400;2023-02-10T08:56:21;96771.94;;;11.88;25.33
22651;BME280;11492;42.646;23.400;2023-02-10T08:58:47;96775.34;;;11.89;24.55
22651;BME280;11492;42.646;23.400;2023-02-10T09:01:19;96774.22;;;11.65;24.92
22651;BME280;11492;42.646;23.400;2023-02-10T09:03:46;96774.06;;;11.75;25.13
22651;BME280;11492;42.646;23.400;2023-02-10T09:06:13;96771.41;;;11.85;23.93
22651;BME280;11492;42.646;23.400;2023-02-10T09:08:40;96768.19;;;11.73;24.87
22651;BME280;11492;42.646;23.400;2023-02-10T09:11:07;96772.38;;;11.48;24.09
22651;BME280;11492;42.646;23.400;2023-02-10T09:13:33;96760.50;;;11.91;24.06
22651;BME280;11492;42.646;23.400;2023-02-10T09:15:58;96761.13;;;12.63;23.79
22651;BME280;11492;42.646;23.400;2023-02-10T09:18:24;96758.81;;;13.11;23.29
22651;BME280;11492;42.646;23.400;2023-02-10T09:20:49;96753.03;;;13.75;22.28
22651;BME280;11492;42.646;23.400;2023-02-10T09:23:15;96745.34;;;13.66;22.25
22651;BME280;11492;42.646;23.400;2023-02-10T09:25:40;96759.25;;;13.90;22.29
22651;BME280;11492;42.646;23.400;2023-02-10T09:28:05;96755.38;;;13.61;22.56
22651;BME280;11492;42.646;23.400;2023-02-10T09:30:31;96752.38;;;12.81;22.33
22651;BME280;11492;42.646;23.400;2023-02-10T09:32:56;96753.47;;;12.27;23.09
22651;BME280;11492;42.646;23.400;2023-02-10T09:35:22;96749.63;;;12.65;23.70
22651;BME280;11492;42.646;23.400;2023-02-10T09:37:47;96748.81;;;13.24;23.25
22651;BME280;11492;42.646;23.400;2023-02-10T09:40:20;96749.53;;;13.09;23.25
22651;BME280;11492;42.646;23.400;2023-02-10T09:43:07;96744.44;;;13.49;23.29
22651;BME280;11492;42.646;23.400;2023-02-10T09:45:39;96736.25;;;13.12;22.47
22651;BME280;11492;42.646;23.400;2023-02-10T09:48:53;96737.41;;;13.09;22.42
22651;BME280;11492;42.646;23.400;2023-02-10T09:51:19;96737.28;;;12.42;22.83
22651;BME280;11492;42.646;23.400;2023-02-10T09:53:51;96730.75;;;12.55;23.85
22651;BME280;11492;42.646;23.400;2023-02-10T09:56:19;96731.09;;;12.26;23.92
22651;BME280;11492;42.646;23.400;2023-02-10T09:58:49;96730.91;;;12.54;23.45
22651;BME280;11492;42.646;23.400;2023-02-10T10:01:29;96727.84;;;13.10;23.87
22651;BME280;11492;42.646;23.400;2023-02-10T10:04:01;96716.06;;;13.48;22.97
22651;BME280;11492;42.646;23.400;2023-02-10T10:06:36;96719.59;;;14.05;22.40
22651;BME280;11492;42.646;23.400;2023-02-10T10:11:44;96701.31;;;13.48;23.18
22651;BME280;11492;42.646;23.400;2023-02-10T10:14:35;96700.44;;;14.06;22.81
22651;BME280;11492;42.646;23.400;2023-02-10T10:20:37;96688.31;;;14.85;22.54
22651;BME280;11492;42.646;23.400;2023-02-10T10:31:27;96672.72;;;14.85;22.29
22651;BME280;11492;42.646;23.400;2023-02-10T10:36:36;96675.78;;;15.81;20.33
22651;BME280;11492;42.646;23.400;2023-02-10T10:39:11;96670.94;;;16.38;20.78
22651;BME280;11492;42.646;23.400;2023-02-10T10:41:41;96675.69;;;16.04;20.27
22651;BME280;11492;42.646;23.400;2023-02-10T10:44:08;96663.09;;;16.16;20.42
22651;BME280;11492;42.646;23.400;2023-02-10T10:46:47;96671.19;;;15.53;20.26
22651;BME280;11492;42.646;23.400;2023-02-10T10:49:15;96668.25;;;15.86;20.14
22651;BME280;11492;42.646;23.400;2023-02-10T10:51:41;96667.50;;;15.32;21.06
22651;BME280;11492;42.646;23.400;2023-02-10T10:54:14;96662.38;;;16.51;20.20
22651;BME280;11492;42.646;23.400;2023-02-10T10:59:20;96645.06;;;17.94;18.65
22651;BME280;11492;42.646;23.400;2023-02-10T11:01:48;96633.59;;;17.60;18.96
22651;BME280;11492;42.646;23.400;2023-02-10T11:04:20;96635.50;;;18.15;18.48
22651;BME280;11492;42.646;23.400;2023-02-10T11:06:53;96635.31;;;18.99;18.27
22651;BME280;11492;42.646;23.400;2023-02-10T11:09:30;96634.59;;;19.05;17.75
22651;BME280;11492;42.646;23.400;2023-02-10T11:14:49;96625.75;;;18.85;17.46
22651;BME280;11492;42.646;23.400;2023-02-10T11:17:32;96624.75;;;18.66;17.65
22651;BME280;11492;42.646;23.400;2023-02-10T11:22:30;96617.53;;;17.63;18.78
22651;BME280;11492;42.646;23.400;2023-02-10T11:24:59;96618.53;;;17.48;18.33
22651;BME280;11492;42.646;23.400;2023-02-10T11:27:25;96615.91;;;17.62;19.14
22651;BME280;11492;42.646;23.400;2023-02-10T11:29:54;96603.50;;;17.50;18.46
22651;BME280;11492;42.646;23.400;2023-02-10T11:32:22;96608.56;;;18.00;18.49
22651;BME280;11492;42.646;23.400;2023-02-10T11:34:50;96612.69;;;17.18;19.10
22651;BME280;11492;42.646;23.400;2023-02-10T11:37:23;96600.44;;;17.61;18.43
22651;BME280;11492;42.646;23.400;2023-02-10T11:39:49;96592.34;;;18.25;18.02
22651;BME280;11492;42.646;23.400;2023-02-10T11:42:20;96598.22;;;19.23;17.97
22651;BME280;11492;42.646;23.400;2023-02-10T11:47:29;96606.31;;;18.94;17.58
22651;BME280;11492;42.646;23.400;2023-02-10T11:49:54;96597.72;;;18.59;17.43
22651;BME280;11492;42.646;23.400;2023-02-10T11:52:22;96594.19;;;19.20;17.63
22651;BME280;11492;42.646;23.400;2023-02-10T11:54:50;96590.56;;;20.07;17.02
22651;BME280;11492;42.646;23.400;2023-02-10T12:05:22;96565.25;;;21.22;16.62
22651;BME280;11492;42.646;23.400;2023-02-10T12:10:46;96566.81;;;21.98;15.44
22651;BME280;11492;42.646;23.400;2023-02-10T12:16:20;96554.91;;;22.63;14.95
22651;BME280;11492;42.646;23.400;2023-02-10T12:19:03;96552.09;;;23.30;14.55
22651;BME280;11492;42.646;23.400;2023-02-10T12:21:43;96554.78;;;22.51;14.92
22651;BME280;11492;42.646;23.400;2023-02-10T12:27:10;96556.72;;;20.44;16.31
22651;BME280;11492;42.646;23.400;2023-02-10T12:32:36;96552.66;;;22.90;14.77
22651;BME280;11492;42.646;23.400;2023-02-10T12:40:23;96540.94;;;21.39;15.60
22651;BME280;11492;42.646;23.400;2023-02-10T12:53:59;96539.22;;;21.70;14.81
22651;BME280;11492;42.646;23.400;2023-02-10T12:56:34;96541.63;;;22.51;14.59
22651;BME280;11492;42.646;23.400;2023-02-10T12:59:16;96544.34;;;23.11;14.33
22651;BME280;11492;42.646;23.400;2023-02-10T13:02:05;96539.56;;;23.43;13.93
22651;BME280;11492;42.646;23.400;2023-02-10T13:04:38;96537.03;;;22.10;14.03
22651;BME280;11492;42.646;23.400;2023-02-10T13:10:17;96542.53;;;22.33;14.44
22651;BME280;11492;42.646;23.400;2023-02-10T13:12:46;96536.69;;;21.88;14.57
22651;BME280;11492;42.646;23.400;2023-02-10T13:15:20;96535.72;;;22.19;14.46
22651;BME280;11492;42.646;23.400;2023-02-10T13:17:48;96538.44;;;23.33;13.58
22651;BME280;11492;42.646;23.400;2023-02-10T13:20:34;96540.69;;;24.00;13.36
22651;BME280;11492;42.646;23.400;2023-02-10T13:23:38;96528.88;;;23.74;13.57
22651;BME280;11492;42.646;23.400;2023-02-10T13:28:59;96529.72;;;24.32;13.66
22651;BME280;11492;42.646;23.400;2023-02-10T13:34:39;96528.88;;;24.60;13.04
22651;BME280;11492;42.646;23.400;2023-02-10T13:37:12;96530.84;;;23.78;13.24
22651;BME280;11492;42.646;23.400;2023-02-10T13:39:39;96529.28;;;23.18;14.10
22651;BME280;11492;42.646;23.400;2023-02-10T13:42:29;96526.16;;;22.55;14.02
22651;BME280;11492;42.646;23.400;2023-02-10T13:47:47;96534.31;;;20.28;15.04
22651;BME280;11492;42.646;23.400;2023-02-10T13:52:51;96527.94;;;16.05;17.93
22651;BME280;11492;42.646;23.400;2023-02-10T13:58:15;96539.75;;;13.46;20.62
22651;BME280;11492;42.646;23.400;2023-02-10T14:00:45;96546.59;;;11.90;21.78
22651;BME280;11492;42.646;23.400;2023-02-10T14:06:06;96549.47;;;11.09;23.04
22651;BME280;11492;42.646;23.400;2023-02-10T14:14:18;96558.91;;;9.73;25.31
22651;BME280;11492;42.646;23.400;2023-02-10T14:16:45;96552.63;;;9.38;25.58
22651;BME280;11492;42.646;23.400;2023-02-10T14:19:39;96554.13;;;9.22;25.36
22651;BME280;11492;42.646;23.400;2023-02-10T14:22:06;96546.59;;;9.00;26.94
22651;BME280;11492;42.646;23.400;2023-02-10T14:24:38;96553.06;;;8.86;26.35
22651;BME280;11492;42.646;23.400;2023-02-10T14:27:11;96556.06;;;8.61;26.96
22651;BME280;11492;42.646;23.400;2023-02-10T14:29:43;96551.53;;;8.45;27.11
22651;BME280;11492;42.646;23.400;2023-02-10T14:32:13;96544.56;;;8.36;27.70
22651;BME280;11492;42.646;23.400;2023-02-10T14:34:39;96544.66;;;8.25;27.84
22651;BME280;11492;42.646;23.400;2023-02-10T14:37:19;96545.16;;;8.19;27.91
22651;BME280;11492;42.646;23.400;2023-02-10T14:39:59;96549.31;;;8.11;28.42
22651;BME280;11492;42.646;23.400;2023-02-10T14:42:28;96541.56;;;7.91;27.27
22651;BME280;11492;42.646;23.400;2023-02-10T14:44:59;96544.91;;;7.82;28.69
22651;BME280;11492;42.646;23.400;2023-02-10T14:47:33;96546.59;;;7.72;30.83
22651;BME280;11492;42.646;23.400;2023-02-10T14:49:59;96541.88;;;7.57;30.89